Time;durP1;ratioP1;P1;durP2;ratioP2;P2;SDS_P1;SDS_P2;PMS_P1;PMS_P2;Temp;Humidity;BMP_temperature;BMP_pressure;BME280_temperature;BME280_humidity;BME280_pressure;Samples;Min_cycle;Max_cycle;Signal;HPM_P1;HPM_P2
2023/12/13 00:00:46;;;;;;;;;;;;;;;16.75;35.44;99060.75;105438;1251;60565;-68
2023/12/13 00:03:14;;;;;;;31.90;19.80;;;;;;;16.85;35.32;99065.64;105250;1251;72907;-68
2023/12/13 00:05:42;;;;;;;33.80;21.00;;;;;;;16.82;35.39;99069.96;105470;1251;69179;-68
2023/12/13 00:08:09;;;;;;;32.00;20.40;;;;;;;16.73;35.50;99075.77;105231;1254;71642;-69
2023/12/13 00:10:37;;;;;;;33.70;21.10;;;;;;;16.75;35.49;99078.67;105120;1255;60619;-68
2023/12/13 00:13:05;;;;;;;;;;;;;;;16.73;35.54;99079.14;104950;1254;60049;-68
2023/12/13 00:15:32;;;;;;;31.20;18.60;;;;;;;16.62;35.76;99083.00;105818;1249;74089;-68
2023/12/13 00:18:00;;;;;;;32.50;20.40;;;;;;;16.76;35.45;99083.70;104965;1261;67987;-68
2023/12/13 00:20:28;;;;;;;32.30;19.50;;;;;;;16.82;35.46;99082.38;104911;1252;72363;-67
2023/12/13 00:22:56;;;;;;;33.30;20.30;;;;;;;16.95;35.18;99076.77;105173;1249;60963;-64
2023/12/13 00:25:24;;;;;;;33.10;20.60;;;;;;;17.20;35.08;99074.81;105309;1251;60551;-65
2023/12/13 00:27:51;;;;;;;;;;;;;;;17.15;34.99;99074.84;104743;1251;73718;-67
2023/12/13 00:30:20;;;;;;;34.10;21.00;;;;;;;17.17;35.06;99077.33;104759;1255;69623;-67
2023/12/13 00:32:47;;;;;;;28.70;19.70;;;;;;;17.10;35.05;99075.71;105057;1250;72043;-67
2023/12/13 00:35:15;;;;;;;29.60;20.00;;;;;;;17.14;35.04;99074.39;104624;1255;60516;-68
2023/12/13 00:37:43;;;;;;;33.90;21.50;;;;;;;16.99;35.40;99076.42;104937;1250;60635;-67
2023/12/13 00:40:11;;;;;;;;;;;;;;;17.02;35.27;99075.49;104877;1250;73660;-68
2023/12/13 00:42:39;;;;;;;34.50;22.50;;;;;;;16.98;35.50;99073.73;104895;1251;68030;-67
2023/12/13 00:45:08;;;;;;;32.80;21.00;;;;;;;16.98;35.52;99069.77;104723;1254;71083;-67
2023/12/13 00:47:37;;;;;;;32.50;21.30;;;;;;;17.21;35.00;99068.66;104818;1255;60974;-67
2023/12/13 00:50:07;;;;;;;37.60;22.50;;;;;;;17.06;35.15;99067.05;104677;1251;60520;-67
2023/12/13 00:52:35;;;;;;;30.60;20.80;;;;;;;16.99;35.27;99064.44;104842;1251;73659;-67
2023/12/13 00:55:04;;;;;;;32.90;20.50;;;;;;;17.03;35.36;99066.73;104726;1251;69057;-67
2023/12/13 00:57:32;;;;;;;28.90;19.80;;;;;;;17.01;35.41;99065.00;104896;1255;72504;-67
2023/12/13 01:00:01;;;;;;;36.20;21.20;;;;;;;17.02;35.41;99064.69;104941;1251;60644;-68
2023/12/13 01:02:28;;;;;;;35.10;20.90;;;;;;;17.10;35.32;99063.67;104970;1254;60344;-60
2023/12/13 01:04:57;;;;;;;30.70;20.50;;;;;;;17.14;35.28;99060.61;105037;1250;74064;-61
2023/12/13 01:07:25;;;;;;;39.30;21.80;;;;;;;17.18;35.20;99056.72;104460;1256;68999;-60
2023/12/13 01:09:52;;;;;;;32.40;20.60;;;;;;;16.98;35.47;99058.27;105548;1251;72897;-60
2023/12/13 01:12:20;;;;;;;31.90;20.20;;;;;;;17.35;35.09;99056.44;105406;1252;60614;-60
2023/12/13 01:14:48;;;;;;;30.40;19.90;;;;;;;17.09;35.43;99052.11;104513;1257;61309;-62
2023/12/13 01:17:16;;;;;;;36.30;21.80;;;;;;;17.04;35.44;99052.48;105009;1250;73901;-60
2023/12/13 01:19:44;;;;;;;33.40;20.60;;;;;;;16.97;35.66;99053.44;105103;1250;69372;-60
2023/12/13 01:22:11;;;;;;;33.60;21.00;;;;;;;17.03;35.67;99052.06;108503;1251;72303;-59
2023/12/13 01:24:39;;;;;;;30.40;20.10;;;;;;;16.96;35.56;99051.34;108557;1250;60562;-60
2023/12/13 01:27:07;;;;;;;;;;;;;;;17.06;35.65;99052.88;105810;1251;60468;-59
2023/12/13 01:29:34;;;;;;;30.50;20.40;;;;;;;17.02;35.53;99056.55;104695;1254;74054;-59
2023/12/13 01:32:02;;;;;;;35.00;21.00;;;;;;;16.98;35.65;99060.27;104744;1257;69733;-59
2023/12/13 01:34:30;;;;;;;33.50;21.00;;;;;;;16.98;35.68;99060.04;104979;1252;73400;-59
2023/12/13 01:36:58;;;;;;;32.90;20.60;;;;;;;16.91;35.65;99052.48;104539;1266;61263;-59
2023/12/13 01:39:25;;;;;;;29.20;19.90;;;;;;;16.89;35.76;99059.89;104839;1251;59836;-59
2023/12/13 01:41:53;;;;;;;30.80;19.50;;;;;;;16.95;35.70;99060.80;104516;1251;74484;-59
2023/12/13 01:44:21;;;;;;;31.40;20.10;;;;;;;16.97;35.57;99062.45;105089;1249;69752;-61
2023/12/13 01:46:50;;;;;;;;;;;;;;;16.98;35.55;99067.13;104657;1257;72628;-68
2023/12/13 01:49:18;;;;;;;34.20;20.00;;;;;;;16.99;35.47;99066.33;104988;1249;61267;-70
2023/12/13 01:51:46;;;;;;;;;;;;;;;17.05;35.48;99066.54;105668;1254;60463;-69
2023/12/13 01:54:15;;;;;;;30.50;19.90;;;;;;;17.03;35.56;99062.52;105314;1250;74165;-69
2023/12/13 01:56:43;;;;;;;32.90;18.80;;;;;;;16.92;35.69;99059.63;105370;1251;69650;-68
2023/12/13 01:59:12;;;;;;;30.80;20.10;;;;;;;17.21;35.40;99053.83;105239;1251;72090;-69
2023/12/13 02:01:40;;;;;;;31.40;19.90;;;;;;;16.99;35.45;99060.13;104928;1249;60594;-69
2023/12/13 02:04:08;;;;;;;33.20;20.80;;;;;;;16.97;35.62;99057.30;104859;1251;60001;-69
2023/12/13 02:06:37;;;;;;;35.60;21.30;;;;;;;16.97;35.58;99059.77;104637;1256;73219;-70
2023/12/13 02:09:04;;;;;;;33.00;20.50;;;;;;;16.97;35.66;99056.27;105004;1251;69190;-70
2023/12/13 02:11:33;;;;;;;31.70;21.10;;;;;;;16.94;35.66;99054.38;104856;1251;72442;-69
2023/12/13 02:14:01;;;;;;;34.60;21.20;;;;;;;16.95;35.67;99052.69;104867;1256;60564;-69
2023/12/13 02:16:29;;;;;;;29.10;19.80;;;;;;;16.98;35.67;99051.06;105023;1254;60587;-69
2023/12/13 02:18:56;;;;;;;33.50;20.50;;;;;;;16.91;35.75;99051.05;105243;1254;74148;-70
2023/12/13 02:21:24;;;;;;;;;;;;;;;16.92;35.94;99048.84;104939;1254;68689;-69
2023/12/13 02:23:52;;;;;;;;;;;;;;;17.01;35.78;99051.67;104932;1254;71865;-69
2023/12/13 02:26:20;;;;;;;34.30;19.40;;;;;;;17.07;35.75;99054.59;105149;1251;61005;-70
2023/12/13 02:28:48;;;;;;;36.30;20.50;;;;;;;16.97;35.60;99056.79;104983;1251;60898;-69
2023/12/13 02:31:16;;;;;;;34.60;21.40;;;;;;;17.19;35.48;99058.20;104867;1269;73702;-69
2023/12/13 02:33:44;;;;;;;33.60;20.80;;;;;;;17.38;35.28;99056.92;104795;1257;68290;-68
2023/12/13 02:36:12;;;;;;;34.90;21.40;;;;;;;17.30;35.25;99059.81;105243;1251;72824;-69
2023/12/13 02:38:43;;;;;;;34.90;22.10;;;;;;;17.24;35.32;99060.51;105197;1250;60745;-68
2023/12/13 02:41:10;;;;;;;34.30;21.60;;;;;;;17.25;35.48;99055.10;105047;1251;60495;-70
2023/12/13 02:43:38;;;;;;;36.30;20.70;;;;;;;17.00;35.80;99054.05;104971;1266;74830;-67
2023/12/13 02:46:06;;;;;;;;;;;;;;;16.99;35.87;99056.29;105058;1254;69071;-68
2023/12/13 02:48:34;;;;;;;35.10;21.10;;;;;;;16.95;35.89;99058.70;104877;1251;72468;-67
2023/12/13 02:51:01;;;;;;;;;;;;;;;16.87;36.20;99060.21;105243;1252;61932;-67
2023/12/13 02:53:29;;;;;;;;;;;;;;;16.98;35.99;99066.79;104890;1251;60571;-69
2023/12/13 02:55:56;;;;;;;;;;;;;;;16.98;35.93;99068.77;104864;1251;75395;-68
2023/12/13 02:58:24;;;;;;;33.80;19.00;;;;;;;17.03;35.75;99069.26;104811;1258;68734;-68
2023/12/13 03:00:52;;;;;;;;;;;;;;;16.98;35.84;99067.84;105000;1254;72384;-69
2023/12/13 03:03:20;;;;;;;37.30;20.60;;;;;;;16.93;35.94;99062.90;104714;1256;61265;-68
2023/12/13 03:05:47;;;;;;;38.90;21.60;;;;;;;16.96;35.96;99058.63;104833;1254;59483;-69
2023/12/13 03:08:16;;;;;;;;;;;;;;;16.92;35.91;99064.77;105045;1254;73857;-69
2023/12/13 03:10:44;;;;;;;38.60;22.00;;;;;;;16.92;35.97;99070.48;104807;1258;68304;-69
2023/12/13 03:13:12;;;;;;;;;;;;;;;16.85;36.13;99073.10;105160;1263;72921;-69
2023/12/13 03:15:40;;;;;;;39.90;21.50;;;;;;;16.90;36.10;99072.73;104969;1251;60707;-69
2023/12/13 03:18:08;;;;;;;42.80;23.20;;;;;;;16.85;36.09;99077.00;104780;1257;60450;-69
2023/12/13 03:20:35;;;;;;;;;;;;;;;16.87;36.10;99080.92;105390;1251;72416;-68
2023/12/13 03:23:07;;;;;;;35.40;21.30;;;;;;;16.91;36.27;99084.85;104664;1251;69099;-68
2023/12/13 03:25:34;;;;;;;38.60;23.00;;;;;;;16.91;36.14;99090.89;104836;1254;72529;-69
2023/12/13 03:28:03;;;;;;;40.50;22.70;;;;;;;16.86;36.26;99099.00;104829;1251;60529;-68
2023/12/13 03:30:30;;;;;;;39.60;23.20;;;;;;;16.99;36.18;99096.62;105152;1251;60575;-69
2023/12/13 03:32:59;;;;;;;41.60;21.90;;;;;;;17.20;35.95;99097.13;104835;1251;72895;-68
2023/12/13 03:35:26;;;;;;;;;;;;;;;17.13;35.87;99092.85;104855;1260;68410;-67
2023/12/13 03:37:54;;;;;;;;;;;;;;;17.07;36.13;99096.03;104923;1251;72368;-68
2023/12/13 03:43:21;;;;;;;43.70;23.70;;;;;;;16.46;38.72;99110.36;101811;1293;602941;-60
2023/12/13 03:45:49;;;;;;;43.30;23.10;;;;;;;17.99;35.13;99105.90;103887;1267;60589;-67
2023/12/13 03:48:16;;;;;;;42.20;23.40;;;;;;;17.96;34.95;99109.67;103863;1267;62327;-67
2023/12/13 03:50:44;;;;;;;36.80;21.60;;;;;;;17.89;34.94;99106.48;103755;1266;72924;-66
2023/12/13 03:53:12;;;;;;;40.80;22.60;;;;;;;18.05;34.79;99100.20;103906;1273;69394;-66
2023/12/13 03:55:40;;;;;;;36.60;22.50;;;;;;;18.25;34.45;99095.73;103625;1267;71698;-67
2023/12/13 03:58:08;;;;;;;;;;;;;;;17.87;35.07;99092.61;103839;1270;171443;-67
2023/12/13 04:00:35;;;;;;;;;;;;;;;17.48;35.56;99091.34;104327;1263;59907;-66
2023/12/13 04:03:03;;;;;;;;;;;;;;;17.41;35.83;99097.77;104402;1269;71484;-66
2023/12/13 04:05:31;;;;;;;39.10;20.70;;;;;;;17.44;35.73;99098.62;104247;1266;69395;-66
2023/12/13 04:07:59;;;;;;;39.00;21.80;;;;;;;17.37;35.80;99096.81;103797;1264;72411;-67
2023/12/13 04:10:26;;;;;;;35.50;20.90;;;;;;;17.29;35.97;99100.30;104068;1264;60541;-67
2023/12/13 04:12:54;;;;;;;40.90;22.30;;;;;;;17.32;35.97;99099.18;104178;1269;59781;-66
2023/12/13 04:15:22;;;;;;;;;;;;;;;17.51;35.83;99098.92;104344;1263;73558;-68
2023/12/13 04:17:49;;;;;;;41.90;22.50;;;;;;;17.63;35.74;99094.05;103810;1264;68356;-67
2023/12/13 04:20:17;;;;;;;40.20;22.60;;;;;;;17.62;35.55;99093.76;104298;1266;73454;-66
2023/12/13 04:22:45;;;;;;;;;;;;;;;17.59;35.69;99089.59;104010;1264;60954;-67
2023/12/13 04:25:13;;;;;;;36.60;21.80;;;;;;;17.59;35.78;99088.69;103971;1275;59778;-66
2023/12/13 04:27:41;;;;;;;36.00;21.70;;;;;;;17.68;35.59;99087.41;104165;1266;72283;-67
2023/12/13 04:30:11;;;;;;;42.30;22.50;;;;;;;17.72;35.53;99087.63;104182;1280;69608;-66
2023/12/13 04:32:39;;;;;;;40.60;22.60;;;;;;;17.75;35.56;99083.12;104678;1262;73430;-66
2023/12/13 04:35:08;;;;;;;35.90;22.30;;;;;;;17.84;35.48;99086.30;104155;1267;60576;-67
2023/12/13 04:37:37;;;;;;;40.60;21.70;;;;;;;17.83;35.38;99086.96;104549;1263;59741;-66
2023/12/13 04:40:06;;;;;;;37.80;22.70;;;;;;;17.90;35.39;99086.02;104413;1262;72766;-67
2023/12/13 04:42:34;;;;;;;39.30;21.90;;;;;;;17.92;35.40;99090.69;105023;1254;68353;-66
2023/12/13 04:45:03;;;;;;;48.00;27.50;;;;;;;17.89;35.41;99090.16;104864;1253;72983;-67
2023/12/13 04:47:30;;;;;;;47.10;29.80;;;;;;;17.85;35.41;99088.20;105200;1252;60784;-67
2023/12/13 04:49:58;;;;;;;44.90;27.40;;;;;;;17.99;35.28;99093.64;105121;1256;59806;-66
2023/12/13 04:52:26;;;;;;;41.00;24.80;;;;;;;18.03;35.19;99095.58;104763;1269;75030;-67
2023/12/13 04:54:54;;;;;;;45.70;25.40;;;;;;;17.99;35.23;99100.52;105061;1254;70027;-67
2023/12/13 04:57:23;;;;;;;41.80;25.50;;;;;;;17.96;35.25;99100.25;104974;1254;73020;-67
2023/12/13 04:59:51;;;;;;;40.90;23.80;;;;;;;17.97;35.24;99105.86;104806;1259;59657;-67
2023/12/13 05:02:19;;;;;;;;;;;;;;;18.15;34.99;99104.58;104669;1260;60701;-66
2023/12/13 05:04:47;;;;;;;;;;;;;;;17.89;35.27;99106.30;104715;1254;73633;-67
2023/12/13 05:07:15;;;;;;;45.40;24.10;;;;;;;17.98;35.16;99108.20;105152;1256;69108;-66
2023/12/13 05:09:43;;;;;;;39.20;23.10;;;;;;;17.81;35.29;99100.59;104615;1259;72948;-66
2023/12/13 05:12:11;;;;;;;40.70;23.40;;;;;;;17.75;35.35;99109.23;105307;1253;60628;-67
2023/12/13 05:14:39;;;;;;;38.50;22.30;;;;;;;17.69;35.49;99110.70;104731;1254;59756;-66
2023/12/13 05:17:07;;;;;;;42.20;23.30;;;;;;;17.89;35.26;99114.14;104853;1254;72870;-67
2023/12/13 05:19:34;;;;;;;41.10;23.20;;;;;;;17.91;35.16;99114.85;104505;1259;69131;-67
2023/12/13 05:22:03;;;;;;;40.30;24.10;;;;;;;17.77;35.40;99119.67;104983;1254;73335;-67
2023/12/13 05:24:30;;;;;;;42.50;24.30;;;;;;;17.51;35.61;99121.56;104886;1254;60649;-67
2023/12/13 05:26:58;;;;;;;;;;;;;;;17.54;35.71;99121.17;104745;1259;59832;-66
2023/12/13 05:29:26;;;;;;;;;;;;;;;17.54;35.72;99121.00;104754;1254;73303;-67
2023/12/13 05:31:54;;;;;;;;;;;;;;;17.56;35.67;99121.21;104635;1257;69144;-60
2023/12/13 05:34:24;;;;;;;41.40;22.50;;;;;;;17.56;35.66;99121.04;105228;1254;73779;-69
2023/12/13 05:36:53;;;;;;;41.70;23.00;;;;;;;17.58;35.63;99123.15;105087;1254;61155;-68
2023/12/13 05:39:21;;;;;;;42.70;24.00;;;;;;;17.66;35.41;99122.01;104905;1254;59595;-68
2023/12/13 05:41:50;;;;;;;48.70;25.60;;;;;;;17.58;35.54;99122.02;105070;1257;73719;-69
2023/12/13 05:44:18;;;;;;;45.10;24.40;;;;;;;17.40;35.80;99120.67;104540;1263;70196;-69
2023/12/13 05:46:45;;;;;;;45.30;24.30;;;;;;;17.44;35.82;99121.25;104663;1257;72503;-70
2023/12/13 05:49:13;;;;;;;;;;;;;;;17.58;35.57;99122.79;105254;1259;61611;-70
2023/12/13 05:51:42;;;;;;;43.00;24.00;;;;;;;17.50;35.67;99125.89;104876;1259;60188;-70
2023/12/13 05:54:10;;;;;;;44.10;24.10;;;;;;;17.46;35.70;99128.55;104598;1259;73335;-69
2023/12/13 05:56:38;;;;;;;48.20;25.70;;;;;;;17.40;35.79;99128.79;104748;1259;69732;-70
2023/12/13 05:59:06;;;;;;;;;;;;;;;17.44;35.75;99128.72;104776;1259;74292;-70
2023/12/13 06:01:33;;;;;;;47.40;24.20;;;;;;;17.34;35.93;99130.76;105209;1259;60387;-70
2023/12/13 06:04:01;;;;;;;44.90;24.30;;;;;;;17.38;35.91;99133.29;104622;1257;60129;-70
2023/12/13 06:06:29;;;;;;;44.40;24.80;;;;;;;17.46;35.92;99136.51;104746;1257;74550;-69
2023/12/13 06:08:57;;;;;;;42.40;24.50;;;;;;;17.45;35.82;99140.83;104653;1259;68531;-70
2023/12/13 06:11:25;;;;;;;44.30;25.00;;;;;;;17.47;35.86;99139.78;105134;1257;71769;-70
2023/12/13 06:13:53;;;;;;;48.60;26.10;;;;;;;17.52;35.81;99139.59;105571;1260;60003;-67
2023/12/13 06:16:21;;;;;;;45.50;26.10;;;;;;;17.48;35.91;99138.26;104538;1259;59742;-68
2023/12/13 06:18:49;;;;;;;49.10;26.90;;;;;;;17.47;35.85;99137.67;105323;1259;72841;-65
2023/12/13 06:21:17;;;;;;;48.60;26.50;;;;;;;17.58;35.73;99134.67;105515;1259;69169;-64
2023/12/13 06:23:45;;;;;;;47.80;26.60;;;;;;;17.53;35.76;99134.86;104614;1259;72590;-64
2023/12/13 06:26:13;;;;;;;;;;;;;;;17.47;35.97;99133.04;105017;1255;62204;-65
2023/12/13 06:28:41;;;;;;;45.10;24.40;;;;;;;17.45;35.84;99133.53;105036;1255;59687;-64
2023/12/13 06:31:08;;;;;;;;;;;;;;;17.42;35.98;99139.13;105165;1254;72843;-67
2023/12/13 06:33:39;;;;;;;;;;;;;;;17.49;35.82;99147.56;105384;1256;69159;-64
2023/12/13 06:36:10;;;;;;;42.90;23.30;;;;;;;17.60;35.80;99149.75;104657;1259;72541;-61
2023/12/13 06:38:40;;;;;;;45.00;25.00;;;;;;;17.53;35.82;99153.00;104642;1256;60950;-60
2023/12/13 06:41:08;;;;;;;48.50;26.10;;;;;;;17.46;35.91;99153.67;104612;1254;59848;-60
2023/12/13 06:43:35;;;;;;;44.70;25.80;;;;;;;17.45;35.89;99158.35;104658;1257;73293;-60
2023/12/13 06:46:03;;;;;;;;;;;;;;;17.54;35.84;99156.61;104786;1258;70356;-61
2023/12/13 06:48:30;;;;;;;;;;;;;;;17.54;35.66;99159.47;104526;1259;72520;-61
2023/12/13 06:51:00;;;;;;;49.50;24.80;;;;;;;17.36;35.99;99156.77;105565;1254;59787;-60
2023/12/13 06:53:28;;;;;;;46.60;24.20;;;;;;;17.27;35.98;99157.62;104609;1274;59939;-60
2023/12/13 06:55:55;;;;;;;;;;;;;;;17.26;36.07;99158.12;105159;1255;74694;-60
2023/12/13 06:58:23;;;;;;;43.60;24.40;;;;;;;17.29;36.13;99162.48;105060;1254;67976;-60
2023/12/13 07:00:51;;;;;;;42.50;24.20;;;;;;;17.26;36.04;99159.14;104498;1254;71236;-60
2023/12/13 07:03:20;;;;;;;50.70;26.40;;;;;;;17.19;36.20;99163.63;104463;1256;60970;-60
2023/12/13 07:05:48;;;;;;;49.10;26.80;;;;;;;17.22;36.10;99163.71;104473;1256;59786;-60
2023/12/13 07:08:15;;;;;;;48.10;26.50;;;;;;;17.06;36.31;99164.09;104423;1260;72787;-62
2023/12/13 07:10:43;;;;;;;45.30;25.20;;;;;;;16.93;36.59;99162.98;104213;1257;68855;-61
2023/12/13 07:13:12;;;;;;;48.20;26.60;;;;;;;16.97;36.50;99164.91;104580;1273;75015;-62
2023/12/13 07:15:40;;;;;;;48.90;26.40;;;;;;;16.90;36.59;99161.77;104306;1257;61143;-60
2023/12/13 07:18:07;;;;;;;45.80;25.00;;;;;;;16.87;36.61;99166.23;104457;1260;59916;-61
2023/12/13 07:20:35;;;;;;;39.50;23.20;;;;;;;16.94;36.73;99166.21;104723;1259;72940;-61
2023/12/13 07:23:05;;;;;;;41.10;24.90;;;;;;;17.07;36.50;99170.41;104428;1259;68100;-60
2023/12/13 07:25:34;;;;;;;40.60;24.60;;;;;;;17.06;36.39;99163.22;104495;1256;72265;-61
2023/12/13 07:28:03;;;;;;;40.80;24.40;;;;;;;16.91;36.62;99165.70;104273;1259;60670;-60
2023/12/13 07:30:31;;;;;;;49.20;25.50;;;;;;;16.96;36.66;99172.62;105077;1257;60671;-60
2023/12/13 07:33:00;;;;;;;46.90;25.60;;;;;;;16.92;36.75;99173.09;104794;1256;72898;-61
2023/12/13 07:35:28;;;;;;;41.40;23.70;;;;;;;17.27;36.33;99177.65;104642;1254;69062;-62
2023/12/13 07:37:56;;;;;;;41.90;24.00;;;;;;;17.20;36.36;99177.34;104811;1260;71657;-61
2023/12/13 07:40:24;;;;;;;42.30;22.70;;;;;;;17.10;36.55;99172.28;104630;1259;60964;-60
2023/12/13 07:42:53;;;;;;;45.80;24.40;;;;;;;17.12;36.52;99166.05;104631;1259;60123;-60
2023/12/13 07:45:22;;;;;;;93.20;48.70;;;;;;;17.05;36.64;99161.66;104439;1258;73393;-60
2023/12/13 07:47:49;;;;;;;63.30;33.30;;;;;;;17.18;36.58;99158.58;104466;1260;69788;-61
2023/12/13 07:50:35;;;;;;;49.60;28.10;;;;;;;17.31;36.33;99150.25;104434;1273;73689;-60
2023/12/13 07:53:03;;;;;;;45.80;26.40;;;;;;;17.34;36.32;99160.52;104330;1260;60613;-60
2023/12/13 07:55:31;;;;;;;43.00;25.60;;;;;;;17.29;36.47;99154.88;104622;1262;60463;-60
2023/12/13 07:57:59;;;;;;;;;;;;;;;17.29;36.52;99152.52;104424;1261;72640;-60
2023/12/13 08:00:27;;;;;;;39.00;23.70;;;;;;;17.42;36.44;99152.73;104826;1258;69065;-61
2023/12/13 08:02:55;;;;;;;40.70;24.80;;;;;;;17.50;36.34;99153.41;104748;1274;72686;-62
2023/12/13 08:05:23;;;;;;;;;;;;;;;17.50;36.41;99147.34;104466;1259;61568;-60
2023/12/13 08:07:51;;;;;;;36.30;22.50;;;;;;;17.50;36.57;99148.42;104422;1254;60547;-62
2023/12/13 08:10:18;;;;;;;41.90;25.00;;;;;;;17.43;36.46;99147.39;104764;1259;73943;-61
2023/12/13 08:12:46;;;;;;;39.70;24.40;;;;;;;17.27;36.72;99144.70;104504;1273;69200;-61
2023/12/13 08:15:16;;;;;;;37.20;23.30;;;;;;;17.34;36.68;99142.38;104650;1259;73565;-61
2023/12/13 08:17:44;;;;;;;34.20;22.50;;;;;;;17.36;36.65;99148.29;104476;1257;60630;-61
2023/12/13 08:20:12;;;;;;;;;;;;;;;17.45;36.57;99152.66;104714;1259;60565;-62
2023/12/13 08:22:39;;;;;;;38.40;24.40;;;;;;;17.45;36.57;99147.92;104459;1259;73730;-61
2023/12/13 08:25:09;;;;;;;;;;;;;;;17.35;36.62;99142.52;104356;1270;69606;-61
2023/12/13 08:27:37;;;;;;;32.70;21.40;;;;;;;17.51;36.56;99144.80;105394;1254;71584;-61
2023/12/13 08:30:05;;;;;;;37.60;23.30;;;;;;;17.48;36.49;99141.11;106024;1254;61610;-61
2023/12/13 08:32:33;;;;;;;35.00;23.40;;;;;;;17.42;36.72;99137.70;104219;1257;60460;-61
2023/12/13 08:35:00;;;;;;;38.80;25.40;;;;;;;17.53;36.54;99139.15;105309;1255;73582;-63
2023/12/13 08:37:29;;;;;;;37.30;25.10;;;;;;;17.51;36.51;99138.59;105323;1259;69256;-61
2023/12/13 08:39:58;;;;;;;37.80;25.20;;;;;;;17.43;36.69;99134.45;104494;1254;73049;-61
2023/12/13 08:42:25;;;;;;;;;;;;;;;17.40;36.89;99137.33;104304;1260;60891;-61
2023/12/13 08:45:06;;;;;;;35.30;21.40;;;;;;;17.52;36.76;99136.93;104613;1262;60470;-61
2023/12/13 08:47:34;;;;;;;31.90;22.50;;;;;;;17.52;36.66;99138.49;104261;1256;74103;-61
2023/12/13 08:50:03;;;;;;;32.70;22.60;;;;;;;17.40;36.88;99135.58;104466;1260;69168;-62
2023/12/13 08:52:32;;;;;;;36.60;23.90;;;;;;;17.37;36.92;99136.50;104643;1261;72473;-60
2023/12/13 08:55:00;;;;;;;35.20;23.70;;;;;;;17.35;36.94;99137.57;107208;1256;61013;-62
2023/12/13 08:57:27;;;;;;;;;;;;;;;17.50;36.82;99133.71;107561;1256;59928;-61
2023/12/13 08:59:55;;;;;;;;;;;;;;;17.56;36.91;99133.73;106171;1256;73856;-60
2023/12/13 09:02:36;;;;;;;31.80;21.90;;;;;;;17.71;36.69;99130.42;105344;1259;70085;-60
2023/12/13 09:05:04;;;;;;;33.70;23.10;;;;;;;17.65;36.78;99128.98;105112;1256;71955;-60
2023/12/13 09:07:32;;;;;;;35.90;22.90;;;;;;;17.73;36.64;99128.85;104858;1260;61121;-61
2023/12/13 09:10:03;;;;;;;32.90;23.40;;;;;;;17.57;36.87;99133.54;104895;1260;60565;-62
2023/12/13 09:12:31;;;;;;;34.60;23.90;;;;;;;17.74;36.74;99141.42;104364;1254;72729;-61
2023/12/13 09:14:58;;;;;;;32.60;23.00;;;;;;;17.72;36.73;99139.05;104456;1260;69205;-60
2023/12/13 09:17:27;;;;;;;33.00;22.00;;;;;;;17.81;36.70;99138.38;104580;1261;73489;-61
2023/12/13 09:19:56;;;;;;;32.50;21.70;;;;;;;17.89;36.45;99140.22;104934;1259;60439;-62
2023/12/13 09:22:24;;;;;;;33.90;22.40;;;;;;;17.97;36.46;99139.35;105861;1261;60319;-61
2023/12/13 09:24:51;;;;;;;30.40;20.80;;;;;;;18.14;36.35;99141.37;105504;1257;73604;-61
2023/12/13 09:27:19;;;;;;;30.90;21.00;;;;;;;18.00;36.34;99141.82;107471;1254;69254;-60
2023/12/13 09:29:47;;;;;;;30.10;20.60;;;;;;;18.10;36.29;99147.21;107695;1256;73383;-61
2023/12/13 09:32:15;;;;;;;;;;;;;;;18.13;36.40;99147.98;107226;1259;60658;-61
2023/12/13 09:34:42;;;;;;;31.10;20.10;;;;;;;18.16;36.49;99144.36;105231;1261;60460;-60
2023/12/13 09:37:13;;;;;;;32.20;21.10;;;;;;;18.27;36.34;99139.00;105871;1256;75574;-61
2023/12/13 09:39:45;;;;;;;29.70;20.10;;;;;;;18.35;36.22;99136.80;104414;1255;69731;-61
2023/12/13 09:42:15;;;;;;;28.40;20.30;;;;;;;18.24;36.36;99139.95;104423;1259;71580;-60
2023/12/13 09:44:44;;;;;;;30.30;21.40;;;;;;;18.18;36.38;99140.69;104302;1263;60976;-60
2023/12/13 09:47:11;;;;;;;35.00;23.00;;;;;;;18.06;36.54;99144.98;104678;1256;60694;-60
2023/12/13 09:49:39;;;;;;;31.30;21.90;;;;;;;17.89;36.64;99145.64;104211;1278;73770;-61
2023/12/13 09:52:07;;;;;;;31.10;21.70;;;;;;;17.87;36.70;99147.23;104525;1263;69258;-61
2023/12/13 09:54:38;;;;;;;31.60;21.90;;;;;;;17.90;36.65;99145.59;104377;1278;73500;-60
2023/12/13 09:57:07;;;;;;;32.80;20.90;;;;;;;17.97;36.63;99141.33;104509;1261;60786;-60
2023/12/13 09:59:36;;;;;;;33.50;23.40;;;;;;;18.00;36.49;99140.70;104428;1259;60430;-61
2023/12/13 10:02:13;;;;;;;50.40;30.80;;;;;;;18.16;36.32;99139.63;104932;1260;73714;-61
2023/12/13 10:04:41;;;;;;;48.00;29.60;;;;;;;18.41;36.04;99132.70;104591;1259;68179;-61
2023/12/13 10:07:08;;;;;;;;;;;;;;;18.56;35.90;99128.27;104232;1261;71829;-62
2023/12/13 10:09:36;;;;;;;49.30;30.30;;;;;;;18.25;35.97;99128.41;104793;1257;60630;-61
2023/12/13 10:12:04;;;;;;;51.50;29.70;;;;;;;18.20;36.12;99125.05;104439;1261;59863;-61
2023/12/13 10:14:35;;;;;;;41.10;26.30;;;;;;;18.19;36.25;99118.02;104329;1261;73731;-61
2023/12/13 10:17:03;;;;;;;43.00;26.90;;;;;;;18.31;36.09;99117.73;104250;1277;69060;-61
2023/12/13 10:19:47;;;;;;;39.30;26.90;;;;;;;18.33;36.04;99115.64;104131;1261;72326;-61
2023/12/13 10:22:18;;;;;;;47.60;29.80;;;;;;;18.41;36.01;99114.43;104363;1259;60686;-61
2023/12/13 10:24:46;;;;;;;43.80;28.90;;;;;;;18.60;35.79;99107.03;104193;1261;60600;-61
2023/12/13 10:27:14;;;;;;;44.90;27.40;;;;;;;18.45;35.78;99106.36;104673;1261;74314;-61
2023/12/13 10:29:41;;;;;;;45.70;29.10;;;;;;;18.25;36.19;99107.81;104452;1272;69302;-61
2023/12/13 10:32:09;;;;;;;;;;;;;;;18.47;36.01;99110.55;104523;1269;72749;-61
2023/12/13 10:34:38;;;;;;;37.70;24.50;;;;;;;18.51;35.86;99105.23;104347;1257;61596;-61
2023/12/13 10:37:06;;;;;;;39.60;24.60;;;;;;;18.30;35.96;99106.64;104337;1255;60280;-62
2023/12/13 10:39:34;;;;;;;;;;;;;;;18.41;36.04;99113.70;104190;1261;74150;-60
2023/12/13 15:59:25;;;;;;;11.60;9.50;;;;;;;16.55;39.25;99153.19;101355;1294;601254;-59
2023/12/13 16:01:53;;;;;;;11.30;9.50;;;;;;;18.26;35.50;99145.88;104085;1268;60758;-58
2023/12/13 16:04:22;;;;;;;11.00;9.40;;;;;;;18.08;35.36;99144.87;103994;1268;60788;-59
2023/12/13 16:06:49;;;;;;;14.60;10.50;;;;;;;17.91;35.50;99142.33;104021;1284;72049;-59
2023/12/13 16:09:17;;;;;;;12.50;9.90;;;;;;;17.74;35.55;99142.59;103983;1278;69643;-59
2023/12/13 16:11:46;;;;;;;14.40;11.40;;;;;;;17.66;35.76;99141.67;104482;1262;73186;-59
2023/12/13 16:14:14;;;;;;;12.20;10.80;;;;;;;17.57;35.68;99145.39;104372;1261;207910;-59
2023/12/13 16:16:41;;;;;;;;;;;;;;;17.57;35.75;99141.52;104366;1260;60012;-59
2023/12/13 16:19:09;;;;;;;12.50;10.30;;;;;;;17.34;35.93;99141.67;104489;1262;72150;-59
2023/12/13 16:21:37;;;;;;;;;;;;;;;17.19;36.12;99145.17;105144;1258;69971;-59
2023/12/13 16:24:08;;;;;;;14.30;11.60;;;;;;;17.09;36.32;99149.11;104434;1262;73073;-59
2023/12/13 16:26:36;;;;;;;16.20;12.90;;;;;;;17.09;36.28;99149.69;104587;1260;61458;-58
2023/12/13 16:29:03;;;;;;;15.80;13.00;;;;;;;17.12;36.23;99141.13;104573;1255;59853;-59
2023/12/13 16:31:43;;;;;;;16.90;13.30;;;;;;;17.17;36.27;99144.08;104294;1262;72950;-58
2023/12/13 16:34:11;;;;;;;;;;;;;;;17.12;36.29;99140.96;104406;1260;69121;-59
2023/12/13 16:36:39;;;;;;;16.90;12.70;;;;;;;17.15;36.33;99139.10;104576;1260;71443;-59
2023/12/13 16:39:09;;;;;;;16.10;13.40;;;;;;;16.86;36.61;99139.05;104943;1257;60967;-61
2023/12/13 16:41:37;;;;;;;17.10;13.60;;;;;;;16.91;36.62;99141.71;105128;1257;60933;-63
2023/12/13 16:44:05;;;;;;;16.60;13.30;;;;;;;16.98;36.47;99144.86;104605;1261;73504;-63
2023/12/13 16:46:33;;;;;;;16.60;13.20;;;;;;;17.21;36.22;99136.86;104268;1274;69892;-63
2023/12/13 16:49:02;;;;;;;14.70;12.60;;;;;;;17.33;36.03;99138.21;104547;1272;73272;-63